Portada
METAR-TAF:

METAR-TAF

Aeroports :

Fairbanks, Alaska, Estats Units d'Amèrica

latitud: 64-48-14N, longitud: 147-52-34W, altitud: 132 m

Observació

L'informe es va fer fa 1 hora i 4 minuts, a les 03:53 UTC
Vent 8 kt del Est/Nord-Est
Temperatura -11°C
Humitat 43%
Pressió 1026 hPa
Visibilitat: 16.1 km
Escasses núvols a una alçada de 15000 ft

METAR: PAFA 300353Z 06008KT 10SM FEW150 M11/M21 A3029 RMK AO2 SLP273 T11061211

Hora: 20:57 (04:57 UTC)

Pronòstic

L'informe es va fer fa 5 hores i 33 minuts, a les 23:24 UTC
Pronòstic vàlid del 30 a les 00 UTC al 31 a les 06 UTC
Vent 11 kt del Nord-Est
Visibilitat: 10 km
Escasses núvols a una alçada de 9000 ft
Núvols disperses a una alçada de 15000 ft

TAF: PAFA 292324Z 3000/3106 05011KT P6SM FEW090 SCT150

Observacions i pronòstics meteorològics de més de 4000 aeroports (METAR i TAF).

Les estacions disponibles són els punts grocs i vermells al mapa.

Posi el ratolí al punt desitjat per veure el nom de l'estació.

Feu clic per veure les observacions i els pronòstics meteorològics.

Per canviar el mapa: feu clic els botons verds amb una creu de color negre per apropar; al botó verd amb un guió per allunyar la imatge; o en les fletxes verdes per a mapes adjacents.


METAR-TAF: